Portada
METAR-TAF:

METAR-TAF

Aeroports :

Aeroport de Nàpols-Capodichino

Nàpols, Itàlia

latitud: 40-51N, longitud: 014-18E, altitud: 88 m

Observació

L'informe es va fer fa 35 minuts, a les 22:50 UTC
Vent 3 kt del Est/Nord-Est
Temperatura 27°C
Humitat 70%
Pressió 1016 hPa
Visibilitat 10 km o més
sense núvols per sota de 1500 mi sense presència de cumulonimbus.

METAR: LIRN 182250Z 07003KT CAVOK 27/21 Q1016 NOSIG

Hora: 01:25 (23:25 UTC)

Pronòstic

L'informe es va fer fa 6 hores i 25 minuts, a les 17:00 UTC
Pronòstic vàlid del 18 a les 18 UTC al 19 a les 18 UTC
Vent 5 kt amb direcció variable
Visibilitat 10 km o més
sense núvols per sota de 1500 mi sense presència de cumulonimbus.
Evolucionant progressivament
l' 19 a les 09 UTC al 19 a les 11 UTC
Vent 10 kt del Oest/Sud-Oest

TAF: LIRN 181700Z 1818/1918 VRB05KT CAVOK BECMG 1909/1911 24010KT

Observacions i pronòstics meteorològics de més de 4000 aeroports (METAR i TAF).

Les estacions disponibles són els punts grocs i vermells al mapa.

Posi el ratolí al punt desitjat per veure el nom de l'estació.

Feu clic per veure les observacions i els pronòstics meteorològics.

Per canviar el mapa: feu clic els botons verds amb una creu de color negre per apropar; al botó verd amb un guió per allunyar la imatge; o en les fletxes verdes per a mapes adjacents.


METAR-TAF: